createdAt,value
2022-10-18T00:01:34.172Z,45.42
2022-10-18T00:04:06.909Z,46.08
2022-10-18T00:06:42.613Z,48.00
2022-10-18T00:09:16.952Z,47.15
2022-10-18T00:11:49.486Z,43.97
2022-10-18T00:14:22.452Z,47.50
2022-10-18T00:16:55.002Z,42.35
2022-10-18T00:19:29.313Z,47.67
2022-10-18T00:22:02.015Z,46.08
2022-10-18T00:24:34.722Z,46.72
2022-10-18T00:27:07.330Z,44.80
2022-10-18T00:29:40.302Z,47.80
2022-10-18T00:32:13.142Z,45.15
2022-10-18T00:34:45.818Z,44.40
2022-10-18T00:37:18.919Z,50.58
2022-10-18T00:42:31.114Z,42.42
2022-10-18T00:45:30.793Z,49.85
2022-10-18T00:48:04.883Z,42.38
2022-10-18T00:50:37.787Z,47.50
2022-10-18T00:53:16.460Z,44.58
2022-10-18T00:55:49.541Z,43.10
2022-10-18T00:58:22.014Z,41.67
2022-10-18T01:00:54.683Z,41.63
2022-10-18T01:03:27.210Z,44.42
2022-10-18T01:06:00.363Z,44.90
2022-10-18T01:08:43.623Z,49.20
2022-10-18T01:11:30.204Z,39.13
2022-10-18T01:14:50.743Z,44.05
2022-10-18T01:17:32.812Z,52.70
2022-10-18T01:20:53.732Z,43.97
2022-10-18T01:23:54.204Z,46.00
2022-10-18T01:29:07.858Z,42.20
2022-10-18T01:32:08.631Z,45.45
2022-10-18T01:34:45.453Z,46.40
2022-10-18T01:37:21.747Z,44.47
2022-10-18T01:39:58.087Z,52.30
2022-10-18T01:42:31.642Z,44.53
2022-10-18T01:45:04.988Z,43.40
2022-10-18T01:47:37.621Z,51.55
2022-10-18T01:50:10.305Z,45.47
2022-10-18T01:52:50.024Z,53.42
2022-10-18T01:55:37.593Z,45.85
2022-10-18T01:58:18.253Z,44.42
2022-10-18T02:01:02.166Z,42.17
2022-10-18T02:03:37.358Z,49.67
2022-10-18T02:06:21.528Z,50.72
2022-10-18T02:09:06.529Z,46.72
2022-10-18T02:11:41.056Z,49.85
2022-10-18T02:14:15.787Z,49.50
2022-10-18T02:16:53.623Z,45.67
2022-10-18T02:19:31.052Z,47.63
2022-10-18T02:22:05.566Z,50.33
2022-10-18T02:24:41.987Z,45.28
2022-10-18T02:27:14.949Z,45.53
2022-10-18T02:29:47.733Z,49.97
2022-10-18T02:32:41.390Z,53.30
2022-10-18T02:35:28.174Z,50.60
2022-10-18T02:38:02.298Z,48.58
2022-10-18T02:40:34.845Z,50.92
2022-10-18T02:43:08.029Z,48.10
2022-10-18T02:45:40.657Z,48.42
2022-10-18T02:48:13.321Z,52.90
2022-10-18T02:50:45.857Z,51.97
2022-10-18T02:53:18.534Z,52.55
2022-10-18T02:55:50.990Z,55.65
2022-10-18T02:58:23.707Z,55.17
2022-10-18T03:00:56.150Z,51.38
2022-10-18T03:03:28.821Z,55.40
2022-10-18T03:06:01.305Z,66.50
2022-10-18T03:08:34.066Z,53.22
2022-10-18T03:11:06.681Z,47.72
2022-10-18T03:13:39.363Z,54.97
2022-10-18T03:16:12.559Z,50.38
2022-10-18T03:18:45.397Z,55.47
2022-10-18T03:21:17.873Z,60.45
2022-10-18T03:23:50.552Z,57.75
2022-10-18T03:26:23.037Z,59.85
2022-10-18T03:28:55.969Z,49.67
2022-10-18T03:31:28.564Z,52.70
2022-10-18T03:34:01.321Z,53.25
2022-10-18T03:36:34.352Z,55.05
2022-10-18T03:39:07.422Z,53.17
2022-10-18T03:41:39.913Z,58.67
2022-10-18T03:44:12.620Z,59.83
2022-10-18T03:46:45.101Z,57.67
2022-10-18T03:49:17.817Z,57.92
2022-10-18T03:51:50.261Z,61.55
2022-10-18T03:54:23.015Z,69.07
2022-10-18T03:56:55.636Z,62.97
2022-10-18T03:59:28.300Z,72.38
2022-10-18T04:02:00.847Z,61.78
2022-10-18T04:04:33.557Z,62.33
2022-10-18T04:07:06.044Z,56.55
2022-10-18T04:09:38.717Z,53.72
2022-10-18T04:12:11.494Z,55.38
2022-10-18T04:14:44.154Z,55.72
2022-10-18T04:17:16.733Z,51.15
2022-10-18T04:19:49.523Z,51.97
2022-10-18T04:22:21.994Z,59.17
2022-10-18T04:24:56.874Z,53.58
2022-10-18T04:27:29.576Z,49.05
2022-10-18T04:30:02.502Z,54.45
2022-10-18T04:32:35.538Z,60.83
2022-10-18T04:35:09.514Z,52.78
2022-10-18T04:37:42.065Z,55.42
2022-10-18T04:40:14.804Z,56.20
2022-10-18T04:42:47.491Z,57.70
2022-10-18T04:45:20.230Z,55.60
2022-10-18T04:47:52.753Z,54.83
2022-10-18T04:50:25.886Z,56.78
2022-10-18T04:52:58.383Z,55.92
2022-10-18T04:55:31.113Z,58.60
2022-10-18T04:58:03.614Z,49.53
2022-10-18T05:00:40.038Z,56.97
2022-10-18T05:03:14.604Z,59.42
2022-10-18T05:06:01.406Z,52.63
2022-10-18T05:08:38.728Z,61.88
2022-10-18T05:11:11.426Z,56.72
2022-10-18T05:13:48.604Z,51.88
2022-10-18T05:16:24.045Z,56.85
2022-10-18T05:18:56.565Z,55.30
2022-10-18T05:21:29.253Z,52.65
2022-10-18T05:24:01.962Z,55.10
2022-10-18T05:26:34.697Z,56.33
2022-10-18T05:29:07.351Z,55.47
2022-10-18T05:31:40.081Z,59.13
2022-10-18T05:34:12.568Z,58.75
2022-10-18T05:36:49.916Z,59.35
2022-10-18T05:39:22.499Z,59.30
2022-10-18T05:41:55.172Z,61.10
2022-10-18T05:44:27.632Z,62.83
2022-10-18T05:47:00.559Z,58.25
2022-10-18T05:49:33.116Z,72.10
2022-10-18T05:52:05.972Z,63.38
2022-10-18T05:54:38.483Z,57.78
2022-10-18T05:57:11.189Z,63.75
2022-10-18T05:59:44.849Z,60.30
2022-10-18T06:02:17.568Z,68.65
2022-10-18T06:04:50.322Z,60.80
2022-10-18T06:07:23.350Z,51.65
2022-10-18T06:09:55.818Z,57.50
2022-10-18T06:12:28.798Z,54.17
2022-10-18T06:15:01.294Z,55.60
2022-10-18T06:17:34.307Z,52.97
2022-10-18T06:20:07.648Z,52.03
2022-10-18T06:22:40.306Z,49.50
2022-10-18T06:25:12.783Z,47.08
2022-10-18T06:27:45.495Z,49.08
2022-10-18T06:30:17.967Z,50.13
2022-10-18T06:32:50.646Z,46.38
2022-10-18T06:35:23.130Z,57.97
2022-10-18T06:37:55.850Z,58.53
2022-10-18T06:40:30.930Z,52.75
2022-10-18T06:43:20.174Z,51.53
2022-10-18T06:48:26.838Z,48.05
2022-10-18T06:51:01.531Z,48.70
2022-10-18T06:53:43.864Z,51.13
2022-10-18T06:56:21.186Z,45.70
2022-10-18T06:58:53.887Z,61.55
2022-10-18T07:01:28.497Z,63.63
2022-10-18T07:04:01.285Z,52.75
2022-10-18T07:06:33.766Z,57.83
2022-10-18T07:09:06.547Z,47.00
2022-10-18T07:11:39.028Z,47.85
2022-10-18T07:14:15.419Z,50.13
2022-10-18T07:16:48.717Z,49.20
2022-10-18T07:19:21.499Z,54.88
2022-10-18T07:21:54.063Z,44.45
2022-10-18T07:24:26.778Z,42.70
2022-10-18T07:26:59.253Z,60.72
2022-10-18T07:29:32.460Z,53.70
2022-10-18T07:32:05.343Z,44.38
2022-10-18T07:34:37.979Z,37.95
2022-10-18T07:37:10.468Z,48.42
2022-10-18T07:39:43.147Z,39.10
2022-10-18T07:42:15.602Z,42.38
2022-10-18T07:44:48.246Z,34.88
2022-10-18T07:47:20.780Z,42.72
2022-10-18T07:49:53.436Z,37.50
2022-10-18T07:52:26.007Z,42.53
2022-10-18T07:54:58.689Z,35.28
2022-10-18T07:57:31.397Z,40.42
2022-10-18T08:00:04.715Z,34.85
2022-10-18T08:02:37.217Z,41.67
2022-10-18T08:05:09.935Z,41.13
2022-10-18T08:07:42.407Z,41.38
2022-10-18T08:10:15.221Z,43.00
2022-10-18T08:12:47.859Z,33.45
2022-10-18T08:15:23.964Z,33.00
2022-10-18T08:17:56.461Z,33.28
2022-10-18T08:20:31.350Z,40.10
2022-10-18T08:23:05.159Z,30.67
2022-10-18T08:25:38.072Z,31.98
2022-10-18T08:28:10.640Z,36.22
2022-10-18T08:30:43.878Z,31.73
2022-10-18T08:33:16.371Z,34.42
2022-10-18T08:36:00.297Z,33.58
2022-10-18T08:38:34.916Z,29.98
2022-10-18T08:41:31.892Z,27.80
2022-10-18T08:44:23.142Z,30.58
2022-10-18T08:47:16.911Z,32.30
2022-10-18T08:50:01.026Z,27.05
2022-10-18T08:52:45.081Z,27.77
2022-10-18T08:55:41.965Z,24.58
2022-10-18T08:58:22.220Z,23.13
2022-10-18T09:01:19.333Z,34.65
2022-10-18T09:04:29.574Z,35.40
2022-10-18T09:10:24.521Z,39.00
2022-10-18T09:13:09.147Z,35.67
2022-10-18T09:16:01.529Z,45.55
2022-10-18T09:18:45.362Z,39.88
2022-10-18T09:21:23.586Z,34.22
2022-10-18T09:24:12.054Z,39.08
2022-10-18T09:26:47.887Z,40.40
2022-10-18T09:30:02.175Z,36.03
2022-10-18T09:32:56.777Z,36.42
2022-10-18T09:35:38.624Z,39.03
2022-10-18T09:38:16.799Z,36.88
2022-10-18T09:40:55.786Z,40.13
2022-10-18T09:43:40.469Z,33.43
2022-10-18T09:46:15.507Z,42.33
2022-10-18T09:49:06.011Z,41.72
2022-10-18T09:54:14.561Z,42.35
2022-10-18T09:56:47.519Z,35.05
2022-10-18T09:59:37.771Z,36.50
2022-10-18T10:04:47.402Z,37.10
2022-10-18T10:07:35.338Z,35.05
2022-10-18T10:10:25.985Z,39.80
2022-10-18T10:13:22.889Z,34.85
2022-10-18T10:15:58.396Z,36.95
2022-10-18T10:18:40.613Z,38.25
2022-10-18T10:21:15.782Z,39.03
2022-10-18T10:23:53.006Z,34.67
2022-10-18T10:26:33.427Z,33.88
2022-10-18T10:29:47.116Z,36.80
2022-10-18T10:32:22.015Z,37.42
2022-10-18T10:34:54.633Z,35.88
2022-10-18T10:37:31.531Z,31.27
2022-10-18T10:40:17.803Z,34.45
2022-10-18T10:43:18.210Z,39.80
2022-10-18T10:46:12.983Z,25.05
2022-10-18T10:48:57.052Z,21.33
2022-10-18T10:51:39.199Z,22.73
2022-10-18T10:54:21.913Z,16.80
2022-10-18T10:56:58.128Z,17.67
2022-10-18T10:59:44.478Z,15.13
2022-10-18T11:02:20.761Z,14.93
2022-10-18T11:04:55.548Z,15.55
2022-10-18T11:07:30.498Z,21.65
2022-10-18T11:10:12.521Z,17.23
2022-10-18T11:12:52.350Z,13.40
2022-10-18T11:15:38.332Z,23.73
2022-10-18T11:18:17.442Z,16.55
2022-10-18T11:21:18.093Z,20.35
2022-10-18T11:23:52.294Z,21.15
2022-10-18T11:26:40.929Z,14.98
2022-10-18T11:29:35.153Z,22.83
2022-10-18T11:32:17.868Z,25.00
2022-10-18T11:35:17.997Z,27.48
2022-10-18T11:38:07.111Z,20.25
2022-10-18T11:40:53.048Z,20.95
2022-10-18T11:44:00.545Z,20.45
2022-10-18T11:46:56.615Z,18.67
2022-10-18T11:49:50.351Z,17.52
2022-10-18T11:52:35.579Z,21.20
2022-10-18T11:55:46.960Z,17.95
2022-10-18T11:58:43.294Z,26.63
2022-10-18T12:01:37.327Z,20.95
2022-10-18T12:04:15.176Z,19.75
2022-10-18T12:06:50.978Z,23.50
2022-10-18T12:09:55.199Z,23.40
2022-10-18T12:12:33.754Z,32.25
2022-10-18T12:15:18.462Z,19.15
2022-10-18T12:17:57.303Z,11.70
2022-10-18T12:20:31.677Z,15.00
2022-10-18T12:23:14.175Z,16.77
2022-10-18T12:25:51.088Z,14.80
2022-10-18T12:28:33.109Z,14.38
2022-10-18T12:31:05.854Z,19.95
2022-10-18T12:33:41.909Z,18.40
2022-10-18T12:36:20.318Z,18.05
2022-10-18T12:38:58.687Z,15.90
2022-10-18T12:41:36.197Z,15.88
2022-10-18T12:44:17.885Z,14.20
2022-10-18T12:46:56.406Z,17.45
2022-10-18T12:49:32.181Z,14.20
2022-10-18T12:52:21.743Z,16.60
2022-10-18T12:55:20.801Z,12.70
2022-10-18T12:57:53.269Z,14.70
2022-10-18T13:00:32.267Z,14.07
2022-10-18T13:03:13.785Z,14.63
2022-10-18T13:05:54.506Z,14.60
2022-10-18T13:08:27.808Z,17.75
2022-10-18T13:11:12.282Z,13.88
2022-10-18T13:16:57.418Z,26.92
2022-10-18T13:20:02.842Z,29.88
2022-10-18T13:22:52.877Z,28.10
2022-10-18T13:25:38.709Z,17.52
2022-10-18T13:28:40.411Z,23.27
2022-10-18T13:31:45.250Z,27.70
2022-10-18T13:34:24.046Z,27.30
2022-10-18T13:37:20.538Z,25.58
2022-10-18T13:40:24.262Z,18.67
2022-10-18T13:42:56.917Z,22.33
2022-10-18T13:45:32.444Z,23.35
2022-10-18T13:48:29.317Z,24.00
2022-10-18T13:51:34.978Z,24.60
2022-10-18T13:54:40.809Z,22.63
2022-10-18T13:57:37.790Z,22.13
2022-10-18T14:00:31.153Z,29.58
2022-10-18T14:03:51.781Z,26.77
2022-10-18T14:06:23.096Z,22.88
2022-10-18T14:09:25.437Z,24.15
2022-10-18T14:12:22.866Z,23.80
2022-10-18T14:15:10.284Z,27.45
2022-10-18T14:17:50.573Z,19.85
2022-10-18T14:20:29.848Z,22.48
2022-10-18T14:23:14.472Z,25.90
2022-10-18T14:25:47.880Z,29.33
2022-10-18T14:28:31.251Z,23.48
2022-10-18T14:31:15.138Z,17.42
2022-10-18T14:33:58.902Z,21.23
2022-10-18T14:36:40.882Z,19.60
2022-10-18T14:39:27.544Z,17.35
2022-10-18T14:42:00.384Z,27.02
2022-10-18T14:44:34.857Z,23.75
2022-10-18T14:47:14.951Z,25.23
2022-10-18T14:49:48.064Z,35.20
2022-10-18T14:52:41.009Z,32.55
2022-10-18T14:55:24.133Z,22.02
2022-10-18T14:57:56.869Z,43.60
2022-10-18T15:00:37.213Z,28.23
2022-10-18T15:03:15.100Z,36.75
2022-10-18T15:05:59.903Z,33.38
2022-10-18T15:08:42.993Z,29.52
2022-10-18T15:11:16.617Z,44.78
2022-10-18T15:13:57.848Z,32.83
2022-10-18T15:16:33.600Z,23.42
2022-10-18T15:19:26.595Z,36.58
2022-10-18T15:22:31.214Z,29.92
2022-10-18T15:25:15.462Z,35.83
2022-10-18T15:27:51.015Z,28.83
2022-10-18T15:30:42.677Z,27.58
2022-10-18T15:33:24.096Z,44.05
2022-10-18T15:36:07.487Z,33.20
2022-10-18T15:38:41.182Z,30.40
2022-10-18T15:41:36.631Z,36.80
2022-10-18T15:44:31.754Z,41.33
2022-10-18T15:47:13.379Z,31.13
2022-10-18T15:49:46.304Z,35.13
2022-10-18T15:52:38.481Z,39.47
2022-10-18T15:55:30.021Z,46.17
2022-10-18T15:58:16.140Z,43.20
2022-10-18T16:00:50.824Z,48.10
2022-10-18T16:03:24.253Z,51.20
2022-10-18T16:06:02.772Z,43.08
2022-10-18T16:08:41.126Z,51.60
2022-10-18T16:11:22.071Z,49.75
2022-10-18T16:13:57.884Z,40.58
2022-10-18T16:16:33.650Z,47.90
2022-10-18T16:19:07.593Z,42.38
2022-10-18T16:21:40.112Z,45.45
2022-10-18T16:24:12.823Z,50.53
2022-10-18T16:26:45.571Z,47.35
2022-10-18T16:29:32.463Z,50.70
2022-10-18T16:32:05.125Z,35.15
2022-10-18T16:34:37.807Z,49.90
2022-10-18T16:37:10.482Z,39.17
2022-10-18T16:39:43.187Z,41.15
2022-10-18T16:42:15.664Z,37.15
2022-10-18T16:44:49.128Z,47.88
2022-10-18T16:47:21.635Z,35.35
2022-10-18T16:49:54.312Z,42.67
2022-10-18T16:52:30.124Z,33.20
2022-10-18T16:55:03.350Z,32.03
2022-10-18T16:57:35.911Z,35.42
2022-10-18T17:00:15.239Z,25.88
2022-10-18T17:02:51.239Z,24.00
2022-10-18T17:05:24.087Z,30.23
2022-10-18T17:07:57.067Z,25.10
2022-10-18T17:10:29.899Z,35.13
2022-10-18T17:13:02.663Z,37.17
2022-10-18T17:15:35.411Z,32.80
2022-10-18T17:18:12.089Z,34.70
2022-10-18T17:20:45.547Z,37.63
2022-10-18T17:27:36.549Z,33.72
2022-10-18T17:30:10.657Z,34.13
2022-10-18T17:32:44.780Z,30.75
2022-10-18T17:35:20.599Z,29.92
2022-10-18T17:37:53.662Z,39.25
2022-10-18T17:40:26.779Z,41.33
2022-10-18T17:42:59.322Z,39.50
2022-10-18T17:45:32.044Z,43.97
2022-10-18T17:48:04.707Z,37.97
2022-10-18T17:50:40.954Z,38.08
2022-10-18T17:53:13.797Z,48.58
2022-10-18T17:55:46.621Z,40.50
2022-10-18T17:58:19.114Z,43.65
2022-10-18T18:00:53.369Z,35.08
2022-10-18T18:03:26.084Z,37.80
2022-10-18T18:05:58.825Z,40.47
2022-10-18T18:08:32.057Z,33.45
2022-10-18T18:11:04.829Z,34.35
2022-10-18T18:13:37.376Z,35.10
2022-10-18T18:16:22.538Z,46.83
2022-10-18T18:18:57.684Z,38.67
2022-10-18T18:21:30.458Z,35.80
2022-10-18T18:24:03.089Z,43.95
2022-10-18T18:26:37.205Z,50.08
2022-10-18T18:29:12.397Z,17.45
2022-10-18T18:31:45.104Z,43.17
2022-10-18T18:34:19.072Z,40.45
2022-10-18T18:36:52.042Z,37.45
2022-10-18T18:39:29.532Z,43.55
2022-10-18T18:42:03.947Z,49.30
2022-10-18T18:44:36.612Z,43.40
2022-10-18T18:47:13.148Z,38.30
2022-10-18T18:49:46.005Z,45.25
2022-10-18T18:52:18.702Z,47.85
2022-10-18T18:54:51.291Z,43.70
2022-10-18T18:57:23.992Z,41.50
2022-10-18T18:59:59.183Z,31.70
2022-10-18T19:02:31.866Z,43.30
2022-10-18T19:05:04.800Z,46.72
2022-10-18T19:07:37.591Z,45.53
2022-10-18T19:10:10.201Z,43.75
2022-10-18T19:12:42.958Z,42.17
2022-10-18T19:15:15.568Z,54.63
2022-10-18T19:17:50.797Z,46.78
2022-10-18T19:20:23.436Z,52.15
2022-10-18T19:22:56.160Z,51.13
2022-10-18T19:25:28.811Z,31.52
2022-10-18T19:28:01.500Z,40.22
2022-10-18T19:30:34.016Z,37.55
2022-10-18T19:33:06.855Z,31.67
2022-10-18T19:35:39.320Z,27.13
2022-10-18T19:38:12.047Z,35.03
2022-10-18T19:40:44.585Z,36.38
2022-10-18T19:43:20.098Z,33.72
2022-10-18T19:45:52.561Z,20.92
2022-10-18T19:48:27.504Z,33.05
2022-10-18T19:51:05.898Z,42.05
2022-10-18T19:53:39.853Z,29.52
2022-10-18T19:56:18.898Z,31.60
2022-10-18T19:58:52.324Z,39.55
2022-10-18T20:01:26.299Z,36.20
2022-10-18T20:04:00.591Z,30.48
2022-10-18T20:06:33.293Z,26.52
2022-10-18T20:09:07.782Z,28.45
2022-10-18T20:11:40.524Z,24.20
2022-10-18T20:14:13.214Z,24.83
2022-10-18T20:16:45.771Z,25.08
2022-10-18T20:19:23.932Z,17.48
2022-10-18T20:21:57.891Z,28.13
2022-10-18T20:24:30.527Z,20.75
2022-10-18T20:27:03.017Z,17.40
2022-10-18T20:29:35.786Z,12.00
2022-10-18T20:32:08.836Z,16.10
2022-10-18T20:34:41.728Z,19.42
2022-10-18T20:37:14.206Z,19.98
2022-10-18T20:39:47.062Z,25.30
2022-10-18T20:42:20.115Z,19.38
2022-10-18T20:44:52.921Z,19.60
2022-10-18T20:47:25.515Z,15.88
2022-10-18T20:49:58.222Z,13.95
2022-10-18T20:52:30.698Z,19.58
2022-10-18T20:55:04.249Z,18.08
2022-10-18T20:57:36.827Z,18.77
2022-10-18T21:00:11.683Z,21.17
2022-10-18T21:02:44.166Z,27.17
2022-10-18T21:05:18.365Z,35.03
2022-10-18T21:07:50.827Z,25.98
2022-10-18T21:10:24.675Z,33.13
2022-10-18T21:12:57.160Z,30.30
2022-10-18T21:15:29.832Z,29.10
2022-10-18T21:18:02.334Z,22.15
2022-10-18T21:20:34.987Z,26.55
2022-10-18T21:23:07.450Z,23.10
2022-10-18T21:25:47.498Z,21.80
2022-10-18T21:28:19.998Z,17.05
2022-10-18T21:30:52.925Z,18.25
2022-10-18T21:33:25.414Z,20.23
2022-10-18T21:36:01.958Z,26.15
2022-10-18T21:38:34.606Z,33.30
2022-10-18T21:41:09.855Z,28.95
2022-10-18T21:43:47.686Z,20.30
2022-10-18T21:46:22.837Z,31.55
2022-10-18T21:48:56.974Z,25.55
2022-10-18T21:51:30.019Z,25.10
2022-10-18T21:54:02.611Z,23.02
2022-10-18T21:56:35.889Z,27.55
2022-10-18T21:59:10.606Z,31.30
2022-10-18T22:01:44.672Z,32.40
2022-10-18T22:04:24.915Z,27.60
2022-10-18T22:06:58.246Z,32.15
2022-10-18T22:09:30.866Z,33.70
2022-10-18T22:12:03.937Z,37.30
2022-10-18T22:14:36.494Z,30.00
2022-10-18T22:17:09.189Z,47.22
2022-10-18T22:19:44.437Z,28.95
2022-10-18T22:22:17.360Z,33.95
2022-10-18T22:24:49.833Z,39.08
2022-10-18T22:27:22.756Z,25.13
2022-10-18T22:29:55.458Z,28.73
2022-10-18T22:32:28.440Z,22.45
2022-10-18T22:35:00.897Z,28.60
2022-10-18T22:37:33.757Z,25.67
2022-10-18T22:40:07.309Z,21.08
2022-10-18T22:42:39.967Z,22.35
2022-10-18T22:45:12.441Z,23.52
2022-10-18T22:47:45.330Z,23.30
2022-10-18T22:50:17.885Z,9.13
2022-10-18T22:52:53.885Z,24.10
2022-10-18T22:55:27.145Z,17.30
2022-10-18T22:57:59.857Z,22.65
2022-10-18T23:00:32.377Z,11.57
2022-10-18T23:03:05.085Z,10.93
2022-10-18T23:05:39.317Z,20.67
2022-10-18T23:08:14.244Z,9.73
2022-10-18T23:10:46.749Z,17.05
2022-10-18T23:13:19.757Z,15.48
2022-10-18T23:15:52.978Z,8.20
2022-10-18T23:18:25.774Z,11.60
2022-10-18T23:21:07.382Z,19.30
2022-10-18T23:23:41.859Z,12.45
2022-10-18T23:26:17.049Z,18.88
2022-10-18T23:28:51.201Z,15.65
2022-10-18T23:31:26.624Z,17.10
2022-10-18T23:34:03.274Z,10.85
2022-10-18T23:36:35.902Z,15.50
2022-10-18T23:39:08.609Z,9.10
2022-10-18T23:41:41.089Z,17.20
2022-10-18T23:44:14.716Z,12.27
2022-10-18T23:46:47.353Z,19.23
2022-10-18T23:49:20.073Z,21.98
2022-10-18T23:51:52.997Z,13.38
2022-10-18T23:54:25.649Z,15.63
2022-10-18T23:56:58.117Z,9.77
2022-10-18T23:59:31.068Z,17.60
